Activities

IESA Fee Schedule
2022-2023 IESA Membership Dues

  • Annual Membership dues of $300.00 must be paid.

  • If the NFHS publishes a rule book for the sports you entered, you will automatically receive a copy of that rule book.
2022-2023 Athletics Dates and Fees
Activity Postmarked
Entry Date & Fees
Final Postmarked
Entry Date & Fees
2022 Boys Golf (per individual) To 6/6/2022 - $40.00 6/16/2022 to 8/19/2022 - $80.00 -Double Fees
2022 Girls Golf (per individual) To 6/6/2022 - $40.00 6/16/2022 to 8/19/2022 - $80.00 -Double Fees
2022 Girls Softball To 6/6/2022 - $65.00 6/16/2022 to 7/1/2022 - $130.00 -Double Fees
2022 Boys Baseball To 6/6/2022 - $65.00 6/16/2022 to 7/1/2022 - $130.00 -Double Fees
2022 Boys Cross-Country To 6/6/2022 - $100.00 6/16/2022 to 8/1/2022 - $200.00 -Double Fees
2022 Girls Cross-Country To 6/6/2022 - $100.00 6/16/2022 to 8/1/2022 - $200.00 -Double Fees
2022 Girls 7th Grade Basketball To 6/6/2022 - $65.00 6/16/2022 to 8/1/2022 - $130.00 -Double Fees
2022 Girls 8th Grade Basketball To 6/6/2022 - $65.00 6/16/2022 to 8/1/2022 - $130.00 -Double Fees
2023 Boys 7th Grade Basketball To 6/6/2022 - $65.00 6/16/2022 to 9/1/2022 - $130.00 -Double Fees
2023 Boys 8th Grade Basketball To 6/6/2022 - $65.00 6/16/2022 to 9/1/2022 - $130.00 -Double Fees
2023 Boys Wrestling To 10/3/2022 - $65.00 10/13/2022 to 11/1/2022 - $130.00 -Double Fees
2023 Girls 7th Grade Volleyball To 10/3/2022 - $65.00 10/13/2022 to 10/15/2022 - $130.00 -Double Fees
2023 Girls 8th Grade Volleyball To 10/3/2022 - $65.00 10/13/2022 to 10/15/2022 - $130.00 -Double Fees
2023 Boys Bowling (per individual) To 12/2/2022 - $20.00 12/4/2022 to 12/16/2022 - $40.00 -Double Fees
2023 Girls Bowling (per individual) To 12/2/2022 - $20.00 12/4/2022 to 12/16/2022 - $40.00 -Double Fees
2023 Boys 7th Grade Track & Field To 10/3/2022 - $70.00 10/13/2022 to 11/1/2022 - $140.00 -Double Fees
2023 Boys 8th Grade Track & Field To 10/3/2022 - $70.00 10/13/2022 to 11/1/2022 - $140.00 -Double Fees
2023 Girls 7th Grade Track & Field To 10/3/2022 - $70.00 10/13/2022 to 11/1/2022 - $140.00 -Double Fees
2023 Girls 8th Grade Track & Field To 10/3/2022 - $70.00 10/13/2022 to 11/1/2022 - $140.00 -Double Fees
2022-2023 Activity Dates and Fees
Activity Postmarked
Entry Date & Fees
Final Postmarked
Entry Date & Fees
2023 Cheerleading To 11/16/2022 - $75.00 11/26/2022 to 12/1/2022 - $150.00 -Double Fees
2023 6th Grade Chess (per individual) To 1/25/2023 - $15.00 2/4/2023 to 2/10/2023 - $30.00 -Double Fees
2023 7th Grade Chess (per individual) To 1/25/2023 - $15.00 2/4/2023 to 2/10/2023 - $30.00 -Double Fees
2023 8th Grade Chess (per individual) To 1/25/2023 - $15.00 2/4/2023 to 2/10/2023 - $30.00 -Double Fees
2023 Scholastic Bowl To 10/3/2022 - $65.00 10/13/2022 to 11/1/2022 - $130.00 -Double Fees
Music - Organization
2023 Orchestra (no minimum) To 2/2/2023 - $65.00 2/12/2023 to 3/8/2023 - $130.00 -Double Fees
2023 Choir Chimes or Handbells (11+) To 2/2/2023 - $65.00 2/12/2023 to 3/8/2023 - $130.00 -Double Fees
2023 Jazz Band (9+) To 2/2/2023 - $65.00 2/12/2023 to 3/8/2023 - $130.00 -Double Fees
2023 Jazz Choir (8+) To 2/2/2023 - $65.00 2/12/2023 to 3/8/2023 - $130.00 -Double Fees
2023 Concert Band (no minimum) To 2/2/2023 - $65.00 2/12/2023 to 3/8/2023 - $130.00 -Double Fees
2023 Show Choir (12+) To 2/2/2023 - $65.00 2/12/2023 to 3/8/2023 - $130.00 -Double Fees
2023 Chorus (no minimum) To 2/2/2023 - $65.00 2/12/2023 to 3/8/2023 - $130.00 -Double Fees
Music - Solo & Ensemble
2023 Choir Chime or Handbell Ensemble (2-5) To 2/2/2023 - $15.00  
2023 Piano Duet To 2/2/2023 - $15.00  
2023 String Ensemble (2-5) To 2/2/2023 - $15.00  
2023 Mixed Instrumental Ensemble (2-5) To 2/2/2023 - $15.00  
2023 Percussion Ensemble (2-5) To 2/2/2023 - $15.00  
2023 Woodwind Ensemble (2-5) To 2/2/2023 - $15.00  
2023 Brass Ensemble (2-5) To 2/2/2023 - $15.00  
2023 Vocal Ensemble (2-8) To 2/2/2023 - $15.00  
2023 Piano Solo To 2/2/2023 - $8.00  
2023 String Solo To 2/2/2023 - $8.00  
2023 Percussion Solo To 2/2/2023 - $8.00  
2023 Brass Solo To 2/2/2023 - $8.00  
2023 Woodwind Solo To 2/2/2023 - $8.00  
2023 Vocal Solo To 2/2/2023 - $8.00  
2023 Choir Chime or Handbell Choir (6-16) To 2/2/2023 - $27.00  
2023 String Choir (6-16) To 2/2/2023 - $27.00  
2023 Instrumental Choir (6-16) To 2/2/2023 - $27.00  
2023 Vocal Choir (9-16) To 2/2/2023 - $27.00  
Speech - Individual Events
2022 Solo Acting To 9/26/2022 - $5.00 10/1/2022 to 10/6/2022 - $10.00 -Double Fees
2022 Poetry To 9/26/2022 - $5.00 10/1/2022 to 10/6/2022 - $10.00 -Double Fees
2022 Impromptu Individual Speaking To 9/26/2022 - $5.00 10/1/2022 to 10/6/2022 - $10.00 -Double Fees
2022 Original Script-Individual To 9/26/2022 - $5.00 10/1/2022 to 10/6/2022 - $10.00 -Double Fees
2022 Storytelling To 9/26/2022 - $5.00 10/1/2022 to 10/6/2022 - $10.00 -Double Fees
Speech - Duet Events
2022 Regular Duet Acting To 9/26/2022 - $10.00 10/1/2022 to 10/6/2022 - $20.00 -Double Fees
2022 Improv Duet Acting To 9/26/2022 - $10.00 10/1/2022 to 10/6/2022 - $20.00 -Double Fees
2022 Original Script-Duet To 9/26/2022 - $10.00 10/1/2022 to 10/6/2022 - $20.00 -Double Fees
Speech - Small Group Events
2022 Small Group Acting (3-5) To 9/26/2022 - $15.00 10/1/2022 to 10/6/2022 - $30.00 -Double Fees
2022 Team Improv (4-6) To 9/26/2022 - $15.00 10/1/2022 to 10/6/2022 - $30.00 -Double Fees
Speech - Chorale
2022 Chorale (9-20) To 9/26/2022 - $20.00 10/1/2022 to 10/6/2022 - $40.00 -Double Fees
 
  • Entries submitted during the Final Entry Period incur a double entry fee.
  • Double entry fees are waived for schools participating in an activity for the first time.
  • No waivers will be granted for any late entries.
IESA PARTNERS & SPONSORS
Dick's Sporting Goods Event Pro Photography Cubby Hole
A&M Products Run With The Law Slammer Systems Rawlings Human Kinetics Coach Education Center
Royal Publishing
Mikasa Sports
Illinois High School Association IHSA's March Madness Experience Illinois Athletic Directors Association National Federation of State High School Associations NFHS Learning Center
Illinois Elementary School Association
1015 Maple Hill Road, Bloomington, IL 61705
PH: 309-829-0114
FAX: 309-829-0625
Contents © 1999-2022 Illinois Elementary School Association

If you encounter an error message, please contact our webmaster.
Tell us your school, and be as specific as you can about the problem.
Most helpful would any error information listed as part of the error page.